This is the latest recevied weather packets stored in our database for station/object JH5EWP-13. If no packets are shown the sender has not sent any weather packets the latest 10 day(s).
| Time | Temp. | Humidity | Pressure | Rain* | Wind** | Luminosity | Snow |
|---|---|---|---|---|---|---|---|
| 1777764225 | 17.22° C | 68% | 999.8 hPa | 0 mm | - | - | - |
| 1777763325 | 17.22° C | 67% | 1000.1 hPa | 0 mm | - | - | - |
| 1777762425 | 16.67° C | 68% | 1000 hPa | 0 mm | - | - | - |
| 1777761525 | 16.67° C | 69% | 1000.3 hPa | 0 mm | - | - | - |
| 1777760624 | 16.67° C | 68% | 1000.7 hPa | 0 mm | - | - | - |
| 1777759724 | 16.67° C | 67% | 1000.5 hPa | 0 mm | - | - | - |
| 1777758825 | 16.11° C | 66% | 1000.1 hPa | 0 mm | - | - | - |
| 1777757925 | 16.67° C | 62% | 1000.2 hPa | 0 mm | - | - | - |
| 1777757025 | 16.67° C | 60% | 1000.3 hPa | 0 mm | - | - | - |
| 1777756125 | 16.67° C | 57% | 1000.1 hPa | 0 mm | - | - | - |
| 1777755225 | 16.67° C | 57% | 999.7 hPa | 0 mm | - | - | - |
| 1777754325 | 16.67° C | 57% | 999.7 hPa | 0 mm | - | - | - |
| 1777753424 | 16.67° C | 54% | 999.5 hPa | 0 mm | - | - | - |
| 1777752524 | 17.22° C | 51% | 999.6 hPa | 0 mm | - | - | - |
| 1777751624 | 17.78° C | 42% | 999.4 hPa | 0 mm | - | - | - |
| 1777750724 | 17.78° C | 41% | 999.5 hPa | 0 mm | - | - | - |
| 1777749825 | 17.78° C | 41% | 999.4 hPa | 0 mm | - | - | - |
| 1777748925 | 17.78° C | 42% | 999.6 hPa | 0 mm | - | - | - |
| 1777748025 | 17.78° C | 42% | 999.8 hPa | 0 mm | - | - | - |
| 1777747125 | 17.22° C | 50% | 1000 hPa | 0 mm | - | - | - |
| 1777746225 | 17.78° C | 43% | 1000.3 hPa | 0 mm | - | - | - |
| 1777745326 | 16.67° C | 51% | 1000.4 hPa | 0 mm | - | - | - |
| 1777744425 | 16.67° C | 51% | 1000.6 hPa | 0 mm | - | - | - |
| 1777743525 | 16.67° C | 51% | 1000.9 hPa | 0 mm | - | - | - |
| 1777742625 | 16.67° C | 52% | 1001.1 hPa | 0 mm | - | - | - |
* Rain latest hour (hover to see other rain measurements)
** Current wind speed in m/s (hover to see current wind gust speed)